sensor_id;sensor_type;location;lat;lon;timestamp;pressure;altitude;pressure_sealevel;temperature
57468;BMP280;43311;51.196;7.518;2023-07-09T00:02:18;97287.38;;;23.35
57468;BMP280;43311;51.196;7.518;2023-07-09T00:04:44;97282.91;;;23.26
57468;BMP280;43311;51.196;7.518;2023-07-09T00:09:44;97289.69;;;23.22
57468;BMP280;43311;51.196;7.518;2023-07-09T00:12:17;97287.47;;;23.20
57468;BMP280;43311;51.196;7.518;2023-07-09T00:14:44;97287.91;;;23.13
57468;BMP280;43311;51.196;7.518;2023-07-09T00:17:27;97279.56;;;23.06
57468;BMP280;43311;51.196;7.518;2023-07-09T00:19:53;97287.03;;;23.02
57468;BMP280;43311;51.196;7.518;2023-07-09T00:22:19;97289.63;;;22.96
57468;BMP280;43311;51.196;7.518;2023-07-09T00:24:51;97277.19;;;22.93
57468;BMP280;43311;51.196;7.518;2023-07-09T00:27:18;97289.06;;;23.07
57468;BMP280;43311;51.196;7.518;2023-07-09T00:29:44;97284.69;;;23.09
57468;BMP280;43311;51.196;7.518;2023-07-09T00:32:14;97285.63;;;23.06
57468;BMP280;43311;51.196;7.518;2023-07-09T00:34:44;97277.72;;;22.97
57468;BMP280;43311;51.196;7.518;2023-07-09T00:37:15;97290.94;;;23.01
57468;BMP280;43311;51.196;7.518;2023-07-09T00:39:41;97271.06;;;22.87
57468;BMP280;43311;51.196;7.518;2023-07-09T00:42:25;97279.09;;;22.87
57468;BMP280;43311;51.196;7.518;2023-07-09T00:44:52;97275.34;;;22.79
57468;BMP280;43311;51.196;7.518;2023-07-09T00:47:38;97277.75;;;22.77
57468;BMP280;43311;51.196;7.518;2023-07-09T00:50:21;97282.59;;;22.79
57468;BMP280;43311;51.196;7.518;2023-07-09T00:52:54;97283.88;;;22.83
57468;BMP280;43311;51.196;7.518;2023-07-09T00:55:25;97281.69;;;22.82
57468;BMP280;43311;51.196;7.518;2023-07-09T00:58:01;97278.41;;;22.92
57468;BMP280;43311;51.196;7.518;2023-07-09T01:00:37;97274.19;;;22.86
57468;BMP280;43311;51.196;7.518;2023-07-09T01:03:20;97282.28;;;22.91
57468;BMP280;43311;51.196;7.518;2023-07-09T01:05:49;97285.75;;;22.97
57468;BMP280;43311;51.196;7.518;2023-07-09T01:08:18;97272.78;;;22.90
57468;BMP280;43311;51.196;7.518;2023-07-09T01:10:46;97286.16;;;22.90
57468;BMP280;43311;51.196;7.518;2023-07-09T01:13:12;97287.84;;;22.88
57468;BMP280;43311;51.196;7.518;2023-07-09T01:15:37;97278.72;;;22.80
57468;BMP280;43311;51.196;7.518;2023-07-09T01:18:04;97276.00;;;22.74
57468;BMP280;43311;51.196;7.518;2023-07-09T01:20:29;97284.91;;;22.66
57468;BMP280;43311;51.196;7.518;2023-07-09T01:22:56;97281.09;;;22.53
57468;BMP280;43311;51.196;7.518;2023-07-09T01:25:25;97282.16;;;22.41
57468;BMP280;43311;51.196;7.518;2023-07-09T01:27:51;97285.69;;;22.32
57468;BMP280;43311;51.196;7.518;2023-07-09T01:30:28;97275.06;;;22.03
57468;BMP280;43311;51.196;7.518;2023-07-09T01:32:58;97282.97;;;21.98
57468;BMP280;43311;51.196;7.518;2023-07-09T01:35:27;97288.28;;;21.78
57468;BMP280;43311;51.196;7.518;2023-07-09T01:37:54;97280.09;;;21.67
57468;BMP280;43311;51.196;7.518;2023-07-09T01:40:21;97286.50;;;21.75
57468;BMP280;43311;51.196;7.518;2023-07-09T01:42:48;97279.72;;;21.74
57468;BMP280;43311;51.196;7.518;2023-07-09T01:45:14;97273.81;;;21.70
57468;BMP280;43311;51.196;7.518;2023-07-09T01:47:41;97291.97;;;21.66
57468;BMP280;43311;51.196;7.518;2023-07-09T01:50:08;97279.09;;;21.65
57468;BMP280;43311;51.196;7.518;2023-07-09T01:52:36;97284.31;;;21.59
57468;BMP280;43311;51.196;7.518;2023-07-09T01:55:02;97277.88;;;21.51
57468;BMP280;43311;51.196;7.518;2023-07-09T01:57:30;97281.81;;;21.41
57468;BMP280;43311;51.196;7.518;2023-07-09T02:00:11;97283.94;;;21.37
57468;BMP280;43311;51.196;7.518;2023-07-09T02:02:43;97282.19;;;21.34
57468;BMP280;43311;51.196;7.518;2023-07-09T02:05:12;97286.69;;;21.29
57468;BMP280;43311;51.196;7.518;2023-07-09T02:07:39;97275.53;;;21.16
57468;BMP280;43311;51.196;7.518;2023-07-09T02:10:05;97291.19;;;21.23
57468;BMP280;43311;51.196;7.518;2023-07-09T02:12:31;97288.22;;;21.21
57468;BMP280;43311;51.196;7.518;2023-07-09T02:14:56;97284.09;;;21.20
57468;BMP280;43311;51.196;7.518;2023-07-09T02:17:23;97289.59;;;21.16
57468;BMP280;43311;51.196;7.518;2023-07-09T02:19:50;97281.22;;;21.09
57468;BMP280;43311;51.196;7.518;2023-07-09T02:22:15;97278.91;;;21.02
57468;BMP280;43311;51.196;7.518;2023-07-09T02:24:41;97282.22;;;20.97
57468;BMP280;43311;51.196;7.518;2023-07-09T02:27:08;97275.78;;;20.89
57468;BMP280;43311;51.196;7.518;2023-07-09T02:29:36;97285.44;;;20.86
57468;BMP280;43311;51.196;7.518;2023-07-09T02:32:03;97287.97;;;20.81
57468;BMP280;43311;51.196;7.518;2023-07-09T02:34:30;97292.84;;;20.82
57468;BMP280;43311;51.196;7.518;2023-07-09T02:36:57;97287.69;;;20.79
57468;BMP280;43311;51.196;7.518;2023-07-09T02:39:24;97289.94;;;20.71
57468;BMP280;43311;51.196;7.518;2023-07-09T02:41:50;97288.66;;;20.67
57468;BMP280;43311;51.196;7.518;2023-07-09T02:44:16;97294.53;;;20.71
57468;BMP280;43311;51.196;7.518;2023-07-09T02:46:42;97290.56;;;20.66
57468;BMP280;43311;51.196;7.518;2023-07-09T02:49:10;97275.28;;;20.53
57468;BMP280;43311;51.196;7.518;2023-07-09T02:51:37;97303.78;;;20.61
57468;BMP280;43311;51.196;7.518;2023-07-09T02:54:03;97293.13;;;20.61
57468;BMP280;43311;51.196;7.518;2023-07-09T02:56:29;97295.50;;;20.59
57468;BMP280;43311;51.196;7.518;2023-07-09T02:58:55;97297.31;;;20.53
57468;BMP280;43311;51.196;7.518;2023-07-09T03:01:21;97305.88;;;20.57
57468;BMP280;43311;51.196;7.518;2023-07-09T03:03:57;97295.75;;;20.47
57468;BMP280;43311;51.196;7.518;2023-07-09T03:06:25;97294.13;;;20.40
57468;BMP280;43311;51.196;7.518;2023-07-09T03:08:51;97297.44;;;20.35
57468;BMP280;43311;51.196;7.518;2023-07-09T03:11:17;97307.63;;;20.37
57468;BMP280;43311;51.196;7.518;2023-07-09T03:13:44;97319.28;;;20.39
57468;BMP280;43311;51.196;7.518;2023-07-09T03:16:09;97311.38;;;20.30
57468;BMP280;43311;51.196;7.518;2023-07-09T03:18:35;97309.31;;;20.25
57468;BMP280;43311;51.196;7.518;2023-07-09T03:21:00;97320.13;;;20.22
57468;BMP280;43311;51.196;7.518;2023-07-09T03:23:26;97316.59;;;20.16
57468;BMP280;43311;51.196;7.518;2023-07-09T03:25:54;97313.66;;;20.14
57468;BMP280;43311;51.196;7.518;2023-07-09T03:28:20;97317.34;;;20.16
57468;BMP280;43311;51.196;7.518;2023-07-09T03:30:47;97319.13;;;20.19
57468;BMP280;43311;51.196;7.518;2023-07-09T03:33:14;97334.47;;;20.24
57468;BMP280;43311;51.196;7.518;2023-07-09T03:35:40;97322.22;;;20.18
57468;BMP280;43311;51.196;7.518;2023-07-09T03:38:06;97327.56;;;20.18
57468;BMP280;43311;51.196;7.518;2023-07-09T03:40:32;97335.09;;;20.19
57468;BMP280;43311;51.196;7.518;2023-07-09T03:42:58;97328.00;;;20.16
57468;BMP280;43311;51.196;7.518;2023-07-09T03:45:24;97333.31;;;20.16
57468;BMP280;43311;51.196;7.518;2023-07-09T03:47:49;97334.78;;;20.17
57468;BMP280;43311;51.196;7.518;2023-07-09T03:50:15;97331.88;;;20.15
57468;BMP280;43311;51.196;7.518;2023-07-09T03:52:41;97338.38;;;20.14
57468;BMP280;43311;51.196;7.518;2023-07-09T03:55:07;97330.09;;;20.12
57468;BMP280;43311;51.196;7.518;2023-07-09T03:57:33;97334.22;;;20.13
57468;BMP280;43311;51.196;7.518;2023-07-09T04:00:02;97333.94;;;20.11
57468;BMP280;43311;51.196;7.518;2023-07-09T04:02:40;97328.66;;;20.02
57468;BMP280;43311;51.196;7.518;2023-07-09T04:05:07;97342.41;;;20.01
57468;BMP280;43311;51.196;7.518;2023-07-09T04:07:34;97336.22;;;19.86
57468;BMP280;43311;51.196;7.518;2023-07-09T04:09:59;97347.91;;;19.80
57468;BMP280;43311;51.196;7.518;2023-07-09T04:12:25;97344.69;;;19.67
57468;BMP280;43311;51.196;7.518;2023-07-09T04:14:50;97350.78;;;19.58
57468;BMP280;43311;51.196;7.518;2023-07-09T04:17:15;97349.47;;;19.54
57468;BMP280;43311;51.196;7.518;2023-07-09T04:19:41;97346.94;;;19.50
57468;BMP280;43311;51.196;7.518;2023-07-09T04:22:08;97340.88;;;19.50
57468;BMP280;43311;51.196;7.518;2023-07-09T04:24:35;97355.19;;;19.70
57468;BMP280;43311;51.196;7.518;2023-07-09T04:27:00;97344.66;;;19.85
57468;BMP280;43311;51.196;7.518;2023-07-09T04:29:32;97355.13;;;20.06
57468;BMP280;43311;51.196;7.518;2023-07-09T04:32:02;97346.38;;;20.14
57468;BMP280;43311;51.196;7.518;2023-07-09T04:34:28;97354.28;;;20.32
57468;BMP280;43311;51.196;7.518;2023-07-09T04:36:54;97351.84;;;20.43
57468;BMP280;43311;51.196;7.518;2023-07-09T04:39:20;97348.81;;;20.59
57468;BMP280;43311;51.196;7.518;2023-07-09T04:41:46;97339.53;;;20.78
57468;BMP280;43311;51.196;7.518;2023-07-09T04:44:12;97344.00;;;20.95
57468;BMP280;43311;51.196;7.518;2023-07-09T04:46:37;97343.31;;;21.09
57468;BMP280;43311;51.196;7.518;2023-07-09T04:49:03;97345.78;;;21.13
57468;BMP280;43311;51.196;7.518;2023-07-09T04:51:29;97347.47;;;21.25
57468;BMP280;43311;51.196;7.518;2023-07-09T04:53:54;97339.13;;;21.31
57468;BMP280;43311;51.196;7.518;2023-07-09T04:56:20;97347.31;;;21.42
57468;BMP280;43311;51.196;7.518;2023-07-09T04:58:45;97342.66;;;21.52
57468;BMP280;43311;51.196;7.518;2023-07-09T05:01:11;97345.44;;;21.57
57468;BMP280;43311;51.196;7.518;2023-07-09T05:03:36;97339.19;;;21.60
57468;BMP280;43311;51.196;7.518;2023-07-09T05:06:03;97349.31;;;21.71
57468;BMP280;43311;51.196;7.518;2023-07-09T05:08:28;97334.56;;;21.75
57468;BMP280;43311;51.196;7.518;2023-07-09T05:10:56;97348.09;;;21.86
57468;BMP280;43311;51.196;7.518;2023-07-09T05:13:22;97336.22;;;21.87
57468;BMP280;43311;51.196;7.518;2023-07-09T05:15:48;97345.88;;;21.99
57468;BMP280;43311;51.196;7.518;2023-07-09T05:18:16;97346.72;;;22.05
57468;BMP280;43311;51.196;7.518;2023-07-09T05:20:42;97345.97;;;22.19
57468;BMP280;43311;51.196;7.518;2023-07-09T05:23:10;97342.53;;;22.33
57468;BMP280;43311;51.196;7.518;2023-07-09T05:25:36;97347.59;;;22.65
57468;BMP280;43311;51.196;7.518;2023-07-09T05:28:03;97346.47;;;22.91
57468;BMP280;43311;51.196;7.518;2023-07-09T05:30:29;97338.06;;;23.18
57468;BMP280;43311;51.196;7.518;2023-07-09T05:32:54;97338.28;;;23.40
57468;BMP280;43311;51.196;7.518;2023-07-09T05:35:22;97348.78;;;23.69
57468;BMP280;43311;51.196;7.518;2023-07-09T05:37:48;97340.81;;;24.00
57468;BMP280;43311;51.196;7.518;2023-07-09T05:40:13;97342.13;;;24.15
57468;BMP280;43311;51.196;7.518;2023-07-09T05:42:39;97337.84;;;24.34
57468;BMP280;43311;51.196;7.518;2023-07-09T05:45:04;97343.19;;;24.65
57468;BMP280;43311;51.196;7.518;2023-07-09T05:47:31;97335.56;;;25.05
57468;BMP280;43311;51.196;7.518;2023-07-09T05:49:57;97345.66;;;25.32
57468;BMP280;43311;51.196;7.518;2023-07-09T05:52:23;97338.94;;;25.85
57468;BMP280;43311;51.196;7.518;2023-07-09T05:54:50;97345.50;;;26.17
57468;BMP280;43311;51.196;7.518;2023-07-09T05:57:16;97345.28;;;26.37
57468;BMP280;43311;51.196;7.518;2023-07-09T05:59:42;97338.09;;;26.67
57468;BMP280;43311;51.196;7.518;2023-07-09T06:02:12;97350.75;;;26.93
57468;BMP280;43311;51.196;7.518;2023-07-09T06:04:38;97336.69;;;27.22
57468;BMP280;43311;51.196;7.518;2023-07-09T06:07:04;97337.09;;;27.32
57468;BMP280;43311;51.196;7.518;2023-07-09T06:09:30;97336.97;;;27.13
57468;BMP280;43311;51.196;7.518;2023-07-09T06:11:57;97339.28;;;27.39
57468;BMP280;43311;51.196;7.518;2023-07-09T06:14:25;97336.97;;;27.54
57468;BMP280;43311;51.196;7.518;2023-07-09T06:16:50;97340.13;;;27.63
57468;BMP280;43311;51.196;7.518;2023-07-09T06:19:15;97336.28;;;27.82
57468;BMP280;43311;51.196;7.518;2023-07-09T06:21:41;97335.94;;;27.97
57468;BMP280;43311;51.196;7.518;2023-07-09T06:24:08;97340.69;;;27.85
57468;BMP280;43311;51.196;7.518;2023-07-09T06:26:34;97346.94;;;27.69
57468;BMP280;43311;51.196;7.518;2023-07-09T06:29:01;97345.69;;;27.70
57468;BMP280;43311;51.196;7.518;2023-07-09T06:31:27;97345.03;;;27.54
57468;BMP280;43311;51.196;7.518;2023-07-09T06:33:52;97336.06;;;27.40
57468;BMP280;43311;51.196;7.518;2023-07-09T06:36:18;97339.91;;;27.10
57468;BMP280;43311;51.196;7.518;2023-07-09T06:38:45;97346.13;;;27.40
57468;BMP280;43311;51.196;7.518;2023-07-09T06:41:11;97343.91;;;27.84
57468;BMP280;43311;51.196;7.518;2023-07-09T06:43:37;97335.13;;;28.07
57468;BMP280;43311;51.196;7.518;2023-07-09T06:46:06;97335.69;;;28.77
57468;BMP280;43311;51.196;7.518;2023-07-09T06:48:32;97343.13;;;28.90
57468;BMP280;43311;51.196;7.518;2023-07-09T06:50:59;97349.44;;;28.98
57468;BMP280;43311;51.196;7.518;2023-07-09T06:53:26;97342.75;;;29.41
57468;BMP280;43311;51.196;7.518;2023-07-09T06:55:52;97341.09;;;29.69
57468;BMP280;43311;51.196;7.518;2023-07-09T06:58:24;97339.59;;;29.86
57468;BMP280;43311;51.196;7.518;2023-07-09T07:00:51;97344.50;;;30.19
57468;BMP280;43311;51.196;7.518;2023-07-09T07:03:17;97343.22;;;30.07
57468;BMP280;43311;51.196;7.518;2023-07-09T07:05:47;97339.31;;;30.34
57468;BMP280;43311;51.196;7.518;2023-07-09T07:08:17;97342.31;;;30.18
57468;BMP280;43311;51.196;7.518;2023-07-09T07:10:45;97339.97;;;30.53
57468;BMP280;43311;51.196;7.518;2023-07-09T07:13:12;97339.41;;;30.42
57468;BMP280;43311;51.196;7.518;2023-07-09T07:15:38;97342.00;;;30.34
57468;BMP280;43311;51.196;7.518;2023-07-09T07:18:03;97339.59;;;30.31
57468;BMP280;43311;51.196;7.518;2023-07-09T07:20:29;97331.88;;;29.77
57468;BMP280;43311;51.196;7.518;2023-07-09T07:22:55;97342.31;;;29.86
57468;BMP280;43311;51.196;7.518;2023-07-09T07:25:21;97336.34;;;30.06
57468;BMP280;43311;51.196;7.518;2023-07-09T07:27:47;97332.81;;;30.11
57468;BMP280;43311;51.196;7.518;2023-07-09T07:30:12;97331.16;;;30.08
57468;BMP280;43311;51.196;7.518;2023-07-09T07:32:43;97332.28;;;30.00
57468;BMP280;43311;51.196;7.518;2023-07-09T07:35:08;97334.47;;;30.01
57468;BMP280;43311;51.196;7.518;2023-07-09T07:37:34;97334.38;;;29.76
57468;BMP280;43311;51.196;7.518;2023-07-09T07:40:00;97335.38;;;29.73
57468;BMP280;43311;51.196;7.518;2023-07-09T07:42:25;97329.00;;;29.39
57468;BMP280;43311;51.196;7.518;2023-07-09T07:44:51;97327.41;;;29.80
57468;BMP280;43311;51.196;7.518;2023-07-09T07:47:17;97329.09;;;30.14
57468;BMP280;43311;51.196;7.518;2023-07-09T07:49:43;97325.03;;;30.21
57468;BMP280;43311;51.196;7.518;2023-07-09T07:52:09;97335.53;;;30.11
57468;BMP280;43311;51.196;7.518;2023-07-09T07:54:35;97334.75;;;30.42
57468;BMP280;43311;51.196;7.518;2023-07-09T07:57:01;97333.72;;;30.45
57468;BMP280;43311;51.196;7.518;2023-07-09T07:59:26;97333.72;;;30.71
57468;BMP280;43311;51.196;7.518;2023-07-09T08:01:52;97332.28;;;30.70
57468;BMP280;43311;51.196;7.518;2023-07-09T08:04:18;97322.28;;;30.52
57468;BMP280;43311;51.196;7.518;2023-07-09T08:06:43;97326.22;;;30.77
57468;BMP280;43311;51.196;7.518;2023-07-09T08:09:09;97330.19;;;30.63
57468;BMP280;43311;51.196;7.518;2023-07-09T08:11:34;97322.25;;;30.91
57468;BMP280;43311;51.196;7.518;2023-07-09T08:14:00;97319.13;;;30.87
57468;BMP280;43311;51.196;7.518;2023-07-09T08:16:26;97316.72;;;30.70
57468;BMP280;43311;51.196;7.518;2023-07-09T08:18:51;97319.63;;;30.98
57468;BMP280;43311;51.196;7.518;2023-07-09T08:21:18;97316.94;;;30.98
57468;BMP280;43311;51.196;7.518;2023-07-09T08:23:44;97318.53;;;31.27
57468;BMP280;43311;51.196;7.518;2023-07-09T08:26:10;97317.53;;;31.17
57468;BMP280;43311;51.196;7.518;2023-07-09T08:28:36;97303.66;;;31.20
57468;BMP280;43311;51.196;7.518;2023-07-09T08:31:02;97316.06;;;31.62
57468;BMP280;43311;51.196;7.518;2023-07-09T08:33:28;97319.81;;;31.59
57468;BMP280;43311;51.196;7.518;2023-07-09T08:35:54;97315.25;;;31.54
57468;BMP280;43311;51.196;7.518;2023-07-09T08:38:20;97305.72;;;31.81
57468;BMP280;43311;51.196;7.518;2023-07-09T08:41:00;97313.91;;;32.09
57468;BMP280;43311;51.196;7.518;2023-07-09T08:46:54;97302.56;;;31.70
57468;BMP280;43311;51.196;7.518;2023-07-09T08:49:55;97300.22;;;31.74
57468;BMP280;43311;51.196;7.518;2023-07-09T08:52:32;97303.19;;;32.24
57468;BMP280;43311;51.196;7.518;2023-07-09T08:55:07;97305.41;;;32.33
57468;BMP280;43311;51.196;7.518;2023-07-09T08:57:49;97308.34;;;32.63
57468;BMP280;43311;51.196;7.518;2023-07-09T09:00:31;97299.50;;;32.69
57468;BMP280;43311;51.196;7.518;2023-07-09T09:03:14;97302.78;;;32.75
57468;BMP280;43311;51.196;7.518;2023-07-09T09:05:43;97300.66;;;32.81
57468;BMP280;43311;51.196;7.518;2023-07-09T09:08:38;97303.50;;;32.48
57468;BMP280;43311;51.196;7.518;2023-07-09T09:11:19;97299.19;;;32.80
57468;BMP280;43311;51.196;7.518;2023-07-09T09:13:56;97304.06;;;32.82
57468;BMP280;43311;51.196;7.518;2023-07-09T09:16:36;97301.81;;;32.65
57468;BMP280;43311;51.196;7.518;2023-07-09T09:19:56;97302.03;;;32.67
57468;BMP280;43311;51.196;7.518;2023-07-09T09:22:01;97291.34;;;32.69
57468;BMP280;43311;51.196;7.518;2023-07-09T09:24:52;97293.88;;;32.67
57468;BMP280;43311;51.196;7.518;2023-07-09T09:27:18;97288.22;;;33.01
57468;BMP280;43311;51.196;7.518;2023-07-09T09:29:44;97292.69;;;32.91
57468;BMP280;43311;51.196;7.518;2023-07-09T09:32:36;97286.13;;;33.29
57468;BMP280;43311;51.196;7.518;2023-07-09T09:35:14;97297.19;;;33.24
57468;BMP280;43311;51.196;7.518;2023-07-09T09:37:40;97287.09;;;33.46
57468;BMP280;43311;51.196;7.518;2023-07-09T09:40:08;97285.69;;;33.68
57468;BMP280;43311;51.196;7.518;2023-07-09T09:42:34;97284.25;;;33.82
57468;BMP280;43311;51.196;7.518;2023-07-09T09:45:01;97291.13;;;33.68
57468;BMP280;43311;51.196;7.518;2023-07-09T09:47:27;97285.66;;;33.60
57468;BMP280;43311;51.196;7.518;2023-07-09T09:49:53;97286.00;;;33.42
57468;BMP280;43311;51.196;7.518;2023-07-09T09:52:19;97290.50;;;33.32
57468;BMP280;43311;51.196;7.518;2023-07-09T09:55:11;97283.16;;;33.62
57468;BMP280;43311;51.196;7.518;2023-07-09T09:57:37;97289.31;;;33.63
57468;BMP280;43311;51.196;7.518;2023-07-09T10:00:03;97291.13;;;33.90
57468;BMP280;43311;51.196;7.518;2023-07-09T10:02:39;97296.75;;;33.85
57468;BMP280;43311;51.196;7.518;2023-07-09T10:05:12;97296.59;;;33.83
57468;BMP280;43311;51.196;7.518;2023-07-09T10:07:55;97313.63;;;33.91
57468;BMP280;43311;51.196;7.518;2023-07-09T10:10:27;97300.94;;;34.23
57468;BMP280;43311;51.196;7.518;2023-07-09T10:18:43;97292.94;;;33.88
57468;BMP280;43311;51.196;7.518;2023-07-09T10:24:21;97292.06;;;34.22
57468;BMP280;43311;51.196;7.518;2023-07-09T10:26:55;97292.00;;;34.37
57468;BMP280;43311;51.196;7.518;2023-07-09T10:40:10;97276.00;;;34.41
57468;BMP280;43311;51.196;7.518;2023-07-09T10:42:44;97277.75;;;34.76
57468;BMP280;43311;51.196;7.518;2023-07-09T10:45:13;97277.75;;;34.76
57468;BMP280;43311;51.196;7.518;2023-07-09T10:47:44;97265.94;;;34.74
57468;BMP280;43311;51.196;7.518;2023-07-09T10:50:15;97267.63;;;34.62
57468;BMP280;43311;51.196;7.518;2023-07-09T10:52:44;97274.22;;;34.36
57468;BMP280;43311;51.196;7.518;2023-07-09T10:55:17;97264.19;;;34.61
57468;BMP280;43311;51.196;7.518;2023-07-09T10:58:04;97267.06;;;34.63
57468;BMP280;43311;51.196;7.518;2023-07-09T11:00:36;97277.34;;;34.87
57468;BMP280;43311;51.196;7.518;2023-07-09T11:03:19;97271.91;;;35.26
57468;BMP280;43311;51.196;7.518;2023-07-09T11:05:48;97268.03;;;35.05
57468;BMP280;43311;51.196;7.518;2023-07-09T11:08:30;97269.66;;;35.00
57468;BMP280;43311;51.196;7.518;2023-07-09T11:10:59;97275.25;;;35.42
57468;BMP280;43311;51.196;7.518;2023-07-09T11:13:43;97280.88;;;35.44
57468;BMP280;43311;51.196;7.518;2023-07-09T11:16:20;97292.03;;;34.99
57468;BMP280;43311;51.196;7.518;2023-07-09T11:19:02;97283.25;;;35.08
57468;BMP280;43311;51.196;7.518;2023-07-09T11:21:29;97276.38;;;35.07
57468;BMP280;43311;51.196;7.518;2023-07-09T11:23:59;97266.50;;;35.50
57468;BMP280;43311;51.196;7.518;2023-07-09T11:26:34;97264.50;;;35.44
57468;BMP280;43311;51.196;7.518;2023-07-09T11:31:35;97263.66;;;35.34
57468;BMP280;43311;51.196;7.518;2023-07-09T11:36:29;97245.75;;;35.47
57468;BMP280;43311;51.196;7.518;2023-07-09T11:38:54;97243.44;;;35.68
57468;BMP280;43311;51.196;7.518;2023-07-09T11:41:40;97252.22;;;35.84
57468;BMP280;43311;51.196;7.518;2023-07-09T11:44:17;97252.53;;;35.39
57468;BMP280;43311;51.196;7.518;2023-07-09T11:46:50;97250.13;;;35.19
57468;BMP280;43311;51.196;7.518;2023-07-09T11:49:19;97232.75;;;35.07
57468;BMP280;43311;51.196;7.518;2023-07-09T11:51:50;97233.88;;;34.96
57468;BMP280;43311;51.196;7.518;2023-07-09T11:54:18;97239.41;;;34.81
57468;BMP280;43311;51.196;7.518;2023-07-09T11:56:52;97244.59;;;35.02
57468;BMP280;43311;51.196;7.518;2023-07-09T11:59:18;97240.78;;;34.97
57468;BMP280;43311;51.196;7.518;2023-07-09T12:01:45;97239.94;;;35.19
57468;BMP280;43311;51.196;7.518;2023-07-09T12:04:14;97230.88;;;35.17
57468;BMP280;43311;51.196;7.518;2023-07-09T12:06:41;97229.34;;;34.99
57468;BMP280;43311;51.196;7.518;2023-07-09T12:09:13;97216.56;;;34.70
57468;BMP280;43311;51.196;7.518;2023-07-09T12:11:44;97225.75;;;34.35
57468;BMP280;43311;51.196;7.518;2023-07-09T12:14:14;97231.59;;;34.09
57468;BMP280;43311;51.196;7.518;2023-07-09T12:16:42;97232.28;;;34.32
57468;BMP280;43311;51.196;7.518;2023-07-09T12:19:12;97222.28;;;34.42
57468;BMP280;43311;51.196;7.518;2023-07-09T12:21:39;97222.44;;;34.44
57468;BMP280;43311;51.196;7.518;2023-07-09T12:24:36;97220.97;;;34.50
57468;BMP280;43311;51.196;7.518;2023-07-09T12:27:04;97222.06;;;34.94
57468;BMP280;43311;51.196;7.518;2023-07-09T12:29:41;97210.03;;;34.65
57468;BMP280;43311;51.196;7.518;2023-07-09T12:32:15;97214.72;;;34.72
57468;BMP280;43311;51.196;7.518;2023-07-09T12:34:41;97214.22;;;34.66
57468;BMP280;43311;51.196;7.518;2023-07-09T12:37:14;97216.06;;;34.49
57468;BMP280;43311;51.196;7.518;2023-07-09T12:39:40;97210.00;;;34.73
57468;BMP280;43311;51.196;7.518;2023-07-09T12:42:15;97202.56;;;35.05
57468;BMP280;43311;51.196;7.518;2023-07-09T12:44:41;97206.44;;;34.55
57468;BMP280;43311;51.196;7.518;2023-07-09T12:47:12;97209.06;;;34.23
57468;BMP280;43311;51.196;7.518;2023-07-09T12:49:40;97200.75;;;34.14
57468;BMP280;43311;51.196;7.518;2023-07-09T12:52:32;97200.47;;;34.34
57468;BMP280;43311;51.196;7.518;2023-07-09T12:55:00;97195.91;;;34.52
57468;BMP280;43311;51.196;7.518;2023-07-09T12:57:27;97191.59;;;34.34
57468;BMP280;43311;51.196;7.518;2023-07-09T12:59:54;97181.78;;;34.38
57468;BMP280;43311;51.196;7.518;2023-07-09T13:02:28;97192.56;;;34.21
57468;BMP280;43311;51.196;7.518;2023-07-09T13:05:05;97187.59;;;34.35
57468;BMP280;43311;51.196;7.518;2023-07-09T13:10:05;97175.91;;;34.96
57468;BMP280;43311;51.196;7.518;2023-07-09T13:12:32;97189.88;;;34.61
57468;BMP280;43311;51.196;7.518;2023-07-09T13:14:58;97186.03;;;34.02
57468;BMP280;43311;51.196;7.518;2023-07-09T13:17:28;97186.25;;;33.82
57468;BMP280;43311;51.196;7.518;2023-07-09T13:19:55;97173.56;;;33.84
57468;BMP280;43311;51.196;7.518;2023-07-09T13:22:22;97178.81;;;33.30
57468;BMP280;43311;51.196;7.518;2023-07-09T13:24:48;97182.94;;;33.01
57468;BMP280;43311;51.196;7.518;2023-07-09T13:27:14;97180.00;;;32.99
57468;BMP280;43311;51.196;7.518;2023-07-09T13:29:40;97176.19;;;32.87
57468;BMP280;43311;51.196;7.518;2023-07-09T13:32:09;97166.50;;;33.14
57468;BMP280;43311;51.196;7.518;2023-07-09T13:34:36;97171.72;;;33.12
57468;BMP280;43311;51.196;7.518;2023-07-09T13:37:01;97158.34;;;33.14
57468;BMP280;43311;51.196;7.518;2023-07-09T13:39:27;97176.00;;;32.85
57468;BMP280;43311;51.196;7.518;2023-07-09T13:41:52;97166.94;;;32.75
57468;BMP280;43311;51.196;7.518;2023-07-09T13:44:27;97162.84;;;32.47
57468;BMP280;43311;51.196;7.518;2023-07-09T13:46:53;97156.28;;;32.35
57468;BMP280;43311;51.196;7.518;2023-07-09T13:49:21;97165.34;;;32.45
57468;BMP280;43311;51.196;7.518;2023-07-09T13:51:48;97147.75;;;32.31
57468;BMP280;43311;51.196;7.518;2023-07-09T13:54:18;97159.88;;;32.30
57468;BMP280;43311;51.196;7.518;2023-07-09T13:56:45;97147.56;;;32.29
57468;BMP280;43311;51.196;7.518;2023-07-09T13:59:16;97133.78;;;32.27
57468;BMP280;43311;51.196;7.518;2023-07-09T14:01:42;97136.25;;;32.10
57468;BMP280;43311;51.196;7.518;2023-07-09T14:04:10;97135.47;;;32.02
57468;BMP280;43311;51.196;7.518;2023-07-09T14:06:36;97138.63;;;31.86
57468;BMP280;43311;51.196;7.518;2023-07-09T14:09:02;97135.50;;;31.74
57468;BMP280;43311;51.196;7.518;2023-07-09T14:11:28;97126.91;;;31.63
57468;BMP280;43311;51.196;7.518;2023-07-09T14:13:54;97123.88;;;31.46
57468;BMP280;43311;51.196;7.518;2023-07-09T14:16:20;97121.56;;;31.29
57468;BMP280;43311;51.196;7.518;2023-07-09T14:18:46;97119.09;;;31.11
57468;BMP280;43311;51.196;7.518;2023-07-09T14:21:18;97111.28;;;31.08
57468;BMP280;43311;51.196;7.518;2023-07-09T14:23:46;97100.41;;;30.87
57468;BMP280;43311;51.196;7.518;2023-07-09T14:26:12;97110.53;;;30.87
57468;BMP280;43311;51.196;7.518;2023-07-09T14:28:38;97108.34;;;30.65
57468;BMP280;43311;51.196;7.518;2023-07-09T14:31:23;97104.41;;;30.66
57468;BMP280;43311;51.196;7.518;2023-07-09T14:33:50;97109.44;;;30.49
57468;BMP280;43311;51.196;7.518;2023-07-09T14:36:15;97123.91;;;30.39
57468;BMP280;43311;51.196;7.518;2023-07-09T14:38:41;97131.44;;;30.33
57468;BMP280;43311;51.196;7.518;2023-07-09T14:41:21;97150.81;;;30.24
57468;BMP280;43311;51.196;7.518;2023-07-09T14:43:49;97149.88;;;30.21
57468;BMP280;43311;51.196;7.518;2023-07-09T14:46:14;97146.44;;;30.08
57468;BMP280;43311;51.196;7.518;2023-07-09T14:48:40;97129.00;;;29.96
57468;BMP280;43311;51.196;7.518;2023-07-09T14:51:15;97137.81;;;29.96
57468;BMP280;43311;51.196;7.518;2023-07-09T14:53:41;97122.41;;;29.78